Ana Sayfa
METAR-TAF:

METAR-TAF

Havaalanları :

Cox Field

Paris, Teksas, Amerika Birleşik Devletleri

Enlem: 33-38N, Boylam: 095-27W, yükseklik: 167 m

Güncel hava durumu gözlemi

Rapor saat 16:56 UTC de 9 dakika önce yapıldı.
Rüzgar güneybatıdan 7 kt
Sıcaklık 28°C
Nem 66%
Basınç 1013 hPa
Görüş mesafesi: 16.1 km
2600 ft yükseklikte parçalı bulutlu
3500 ft yükseklikte parçalı çok bulutlu

METAR: KPRX 181656Z AUTO 22007KT 10SM SCT026 BKN035 28/21 A2991 RMK AO2 SLP126 T02830211

Saat: 12:05 (17:05 UTC)


TAF: eksik

4.000'den fazla havaalanı için hava durumu gözlemleri ve tahminleri (METAR ve TAF raporları).

Kullanılabilir istasyonlar harita üzerinde sarı ve kırmızı noktalarla gösterilir.

İstasyonun adını görmek için fareyi noktanın üzerinde gezdirin.

Sonrasında hava gözlem ve tahminlerini görmek için tıklayın.

Haritayı değiştirmek için: yaklaştırmak için siyah artı işaretli yeşil düğmeye ve uzaklaştırmak için de eksi işaretli düğmeye hızla tıklayın; bitişik haritalar için yeşil okları kullanın.


METAR-TAF: